Mckinley Sea — WDE5024 — position and weather

sailwx.info

Track history (hours):
 
Tides and Currents Weather Stations Pressure Air Temp Water Temp Dewpoint Dewpoint Depression Visibility Wind Speed Wind Dir Waves Ship Positions

Mckinley Sea

Owner: Kirby Offshore Marine, LLC, Staten Island, NY. More information available from US FCC via Universal Licensing System and Coast Guard Vessel Documentation Center.

Last reported at 2018-Apr-20 15:08 UTC. Time now 2018-Apr-20 16:45 UTC.
Position N 42°15' W 070°58'.

Length 152 m; draft 5.5 m.

Type: . MMSI: 367360980.

Date/timePositionNaut miles runAvg speedWind from/ knotsBaromVisibWave heightAir tempDewpointWater temp
2018-Apr-20 15:08N 42°15' W 070°58'0 1.5
2018-Apr-20 14:56N 42°15' W 070°58'1 0.8
2018-Apr-20 14:15N 42°14' W 070°58'0 0.0
2018-Apr-20 13:53N 42°14' W 070°58'0 0.0
2018-Apr-20 13:29N 42°14' W 070°58'0 0.0
2018-Apr-20 12:47N 42°14' W 070°58'0 0.0
2018-Apr-20 12:12N 42°14' W 070°58'0 0.0
2018-Apr-20 11:44N 42°14' W 070°58'0 0.0
2018-Apr-20 11:22N 42°14' W 070°58'0 0.0
2018-Apr-20 10:23N 42°14' W 070°58'0 0.0
2018-Apr-20 07:33N 42°14' W 070°58'0 0.0
2018-Apr-20 07:21N 42°14' W 070°58'0 0.0
2018-Apr-20 06:58N 42°14' W 070°58'0 0.0
2018-Apr-20 06:29N 42°14' W 070°58'0 0.0
2018-Apr-20 05:56N 42°14' W 070°58'0 0.0
2018-Apr-20 05:29N 42°14' W 070°58'0 0.0
2018-Apr-20 04:59N 42°14' W 070°58'0 0.0
2018-Apr-20 04:29N 42°14' W 070°58'0 0.0
2018-Apr-20 03:59N 42°14' W 070°58'0 0.0
2018-Apr-20 03:29N 42°14' W 070°58'0 0.0
2018-Apr-20 02:58N 42°14' W 070°58'0 0.0
2018-Apr-19 22:32N 42°14' W 070°58'0 0.0
2018-Apr-19 22:25N 42°14' W 070°58'0 0.0
2018-Apr-19 17:20N 42°14' W 070°58'0 0.0
2018-Apr-19 16:58N 42°14' W 070°58'0 0.0
2018-Apr-19 15:12N 42°14' W 070°58'0 0.0
2018-Apr-19 15:00N 42°14' W 070°58'0 0.1
2018-Apr-19 14:31N 42°14' W 070°58'1 2.0
2018-Apr-19 14:00N 42°15' W 070°57'2 3.4
2018-Apr-19 13:31N 42°16' W 070°56'2 4.5
2018-Apr-19 13:00N 42°19' W 070°55'3 5.0
2018-Apr-19 12:30N 42°19' W 070°52'2 4.1
2018-Apr-19 12:01N 42°20' W 070°50'2 3.0
2018-Apr-19 11:28N 42°22' W 070°49'2 3.5
2018-Apr-19 11:00N 42°23' W 070°51'2 3.2
2018-Apr-19 10:30N 42°23' W 070°53'2 4.0
2018-Apr-19 10:00N 42°22' W 070°55'3 5.3
2018-Apr-19 09:30N 42°20' W 070°58'0 0.3
2018-Apr-19 08:56N 42°20' W 070°58'0 0.1
2018-Apr-19 08:26N 42°20' W 070°58'0 0.0
2018-Apr-19 07:57N 42°20' W 070°58'0 0.0
2018-Apr-19 06:27N 42°20' W 070°58'0 0.0
2018-Apr-19 05:29N 42°20' W 070°58'0 0.0
2018-Apr-19 04:50N 42°20' W 070°58'0 0.0
2018-Apr-19 04:26N 42°20' W 070°58'0 0.1
2018-Apr-19 03:56N 42°20' W 070°59'0 0.1
2018-Apr-19 03:30N 42°20' W 070°59'0 0.0
2018-Apr-19 02:57N 42°20' W 070°59'0 0.1
2018-Apr-19 02:30N 42°20' W 070°59'0 0.0
2018-Apr-19 01:54N 42°20' W 070°59'0 0.2
2018-Apr-19 01:27N 42°20' W 070°59'0 0.2
2018-Apr-19 00:54N 42°20' W 070°58'0 0.0
2018-Apr-19 00:29N 42°20' W 070°58'0 0.0
2018-Apr-18 23:57N 42°20' W 070°58'0 0.0
2018-Apr-18 23:24N 42°20' W 070°58'0 0.0
2018-Apr-18 23:00N 42°20' W 070°58'0 0.0
2018-Apr-18 22:15N 42°20' W 070°58'0 0.0
2018-Apr-18 21:59N 42°20' W 070°58'0 0.0
2018-Apr-18 21:20N 42°20' W 070°58'0 0.0
2018-Apr-18 20:56N 42°20' W 070°58'0 0.0
2018-Apr-18 20:30N 42°20' W 070°58'0 0.0
2018-Apr-18 20:00N 42°20' W 070°58'0 0.1
2018-Apr-18 19:30N 42°20' W 070°58'2 3.1
2018-Apr-18 18:58N 42°21' W 070°56'2 5.3
2018-Apr-18 18:30N 42°23' W 070°54'3 5.6
2018-Apr-18 18:00N 42°23' W 070°50'3 5.9
2018-Apr-18 17:30N 42°22' W 070°46'2 4.7
2018-Apr-18 17:00N 42°20' W 070°44'3 5.4
2018-Apr-18 16:30N 42°18' W 070°41'3 5.7
2018-Apr-18 16:00N 42°16' W 070°39'92 5.0
2018-Apr-17 21:28N 41°14' W 072°10'9 9.8
2018-Apr-17 20:35N 41°11' W 072°21'1 9.5
2018-Apr-17 20:30N 41°11' W 072°22'5 9.3
2018-Apr-17 19:55N 41°09' W 072°29'4 8.7
2018-Apr-17 19:30N 41°08' W 072°33'4 8.4
2018-Apr-17 19:00N 41°07' W 072°39'49 6.7
2018-Apr-17 11:38N 40°54' W 073°42'1 6.9
2018-Apr-17 11:29N 40°53' W 073°43'4 7.5
2018-Apr-17 11:00N 40°50' W 073°46'3 5.9
2018-Apr-17 10:29N 40°48' W 073°48'3 7.1
2018-Apr-17 10:00N 40°48' W 073°53'3 5.4
2018-Apr-17 09:30N 40°47' W 073°56'3 5.2
2018-Apr-17 09:00N 40°45' W 073°58'2 4.2
2018-Apr-17 08:30N 40°43' W 073°59'2 3.2
2018-Apr-17 08:00N 40°42' W 074°00'2 4.1
2018-Apr-17 07:30N 40°40' W 074°03'2 3.4
2018-Apr-17 07:00N 40°39' W 074°04'4 7.4
2018-Apr-17 06:30N 40°39' W 074°09'2 4.6
2018-Apr-17 06:00N 40°38' W 074°12'0 0.8
2018-Apr-17 05:30N 40°38' W 074°12'0 0.0
2018-Apr-17 05:00N 40°38' W 074°12'0 0.0
2018-Apr-17 04:30N 40°38' W 074°12'0 0.3
2018-Apr-17 04:00N 40°38' W 074°12'0 0.1
2018-Apr-17 03:29N 40°38' W 074°12'0 0.0
2018-Apr-17 02:59N 40°38' W 074°12'0 0.0
2018-Apr-17 02:30N 40°38' W 074°12'1 2.4
2018-Apr-17 02:00N 40°39' W 074°11'1 2.2
2018-Apr-17 01:29N 40°39' W 074°10'0 0.0
2018-Apr-17 01:00N 40°39' W 074°10'0 0.0
2018-Apr-17 00:30N 40°39' W 074°10'0 0.0
2018-Apr-17 00:00N 40°39' W 074°10'0 0.0
2018-Apr-16 23:30N 40°39' W 074°10'0 0.0
2018-Apr-16 23:00N 40°39' W 074°10'0 0.0
2018-Apr-16 22:24N 40°39' W 074°10'0 0.0
2018-Apr-16 22:00N 40°39' W 074°10'0 0.0
2018-Apr-16 21:27N 40°39' W 074°10'0 0.0
2018-Apr-16 21:00N 40°39' W 074°10'0 0.0
2018-Apr-16 20:30N 40°39' W 074°10'0 0.0
2018-Apr-16 20:00N 40°39' W 074°10'0 0.0
2018-Apr-16 19:24N 40°39' W 074°10'0 0.0
2018-Apr-16 18:54N 40°39' W 074°10'0 0.0
2018-Apr-16 18:30N 40°39' W 074°10'0 0.0
2018-Apr-16 17:54N 40°39' W 074°10'0 0.0
2018-Apr-16 17:27N 40°39' W 074°10'0 0.0
2018-Apr-16 16:57N 40°39' W 074°10'0 0.0
2018-Apr-16 15:54N 40°39' W 074°10'0 0.0
2018-Apr-16 15:21N 40°39' W 074°10'0 0.0
2018-Apr-16 14:57N 40°39' W 074°10'0 0.0
2018-Apr-16 14:21N 40°39' W 074°10'0 0.0
2018-Apr-16 13:54N 40°39' W 074°10'0 0.0
2018-Apr-16 13:03N 40°39' W 074°10'0 0.0
2018-Apr-16 12:57N 40°39' W 074°10'0 0.0
2018-Apr-16 12:21N 40°39' W 074°10'0 0.0
2018-Apr-16 11:57N 40°39' W 074°10'0 0.0
2018-Apr-16 11:27N 40°39' W 074°10'0 0.0
2018-Apr-16 11:00N 40°39' W 074°10'0 0.0
2018-Apr-16 10:30N 40°39' W 074°10'0 0.0
2018-Apr-16 09:57N 40°39' W 074°10'0 0.0
2018-Apr-16 09:30N 40°39' W 074°10'0 0.0
2018-Apr-16 09:00N 40°39' W 074°10'0 0.0
2018-Apr-16 08:27N 40°39' W 074°10'0 0.0
2018-Apr-16 08:00N 40°39' W 074°10'0 0.0
2018-Apr-16 07:30N 40°39' W 074°10'0 0.0
2018-Apr-16 07:00N 40°39' W 074°10'0 0.0
2018-Apr-16 06:27N 40°39' W 074°10'0 0.0
2018-Apr-16 05:57N 40°39' W 074°10'0 0.0
2018-Apr-16 05:27N 40°39' W 074°10'0 0.0
2018-Apr-16 05:00N 40°39' W 074°10'0 0.0
2018-Apr-16 04:27N 40°39' W 074°10'0 0.0
2018-Apr-16 03:57N 40°39' W 074°10'0 0.0
2018-Apr-16 03:27N 40°39' W 074°10'0 0.0
2018-Apr-16 02:57N 40°39' W 074°10'0 0.0
2018-Apr-16 02:27N 40°39' W 074°10'0 0.0
2018-Apr-16 01:57N 40°39' W 074°10'0 0.0
2018-Apr-16 01:27N 40°39' W 074°10'0 0.0
2018-Apr-16 00:59N 40°39' W 074°10'2 4.0
2018-Apr-16 00:30N 40°38' W 074°12'0 0.0
2018-Apr-15 23:59N 40°38' W 074°12'0 0.1
2018-Apr-15 23:30N 40°38' W 074°12'2 4.3
2018-Apr-15 23:00N 40°39' W 074°10'4 8.9
2018-Apr-15 22:30N 40°39' W 074°04'4 8.1
2018-Apr-15 22:00N 40°42' W 074°00'3 5.9
2018-Apr-15 21:30N 40°44' W 073°58'3 6.6
2018-Apr-15 21:00N 40°47' W 073°55'4 7.9
2018-Apr-15 20:29N 40°48' W 073°50'57 8.8
2018-Apr-15 14:01N 41°07' W 072°39'010.0
2018-Apr-15 14:00N 41°07' W 072°39'510.4
2018-Apr-15 13:30N 41°08' W 072°32'611.2
2018-Apr-15 13:00N 41°10' W 072°25'611.7
2018-Apr-15 12:29N 41°12' W 072°17'611.7
2018-Apr-15 11:58N 41°13' W 072°10'92 6.7
2018-Apr-14 22:06N 42°22' W 070°46'1 8.9
2018-Apr-14 22:00N 42°22' W 070°47'4 7.9
2018-Apr-14 21:30N 42°23' W 070°53'4 8.3
2018-Apr-14 21:00N 42°20' W 070°57'4 7.9
2018-Apr-14 20:30N 42°21' W 071°02'2 3.7
2018-Apr-14 20:00N 42°23' W 071°02'0 0.2
2018-Apr-14 19:30N 42°23' W 071°01'0 0.0
2018-Apr-14 18:57N 42°23' W 071°01'0 0.0
2018-Apr-14 18:31N 42°23' W 071°01'0 0.0
2018-Apr-14 18:00N 42°23' W 071°01'0 0.0
2018-Apr-14 17:30N 42°23' W 071°01'0 0.0
2018-Apr-14 16:55N 42°23' W 071°01'0 0.0
2018-Apr-14 16:31N 42°23' W 071°01'0 0.0
2018-Apr-14 15:57N 42°23' W 071°01'0 0.0
2018-Apr-14 15:27N 42°23' W 071°01'0 0.0
2018-Apr-14 15:00N 42°23' W 071°01'0 0.0
2018-Apr-14 14:30N 42°23' W 071°01'0 0.0
2018-Apr-14 13:57N 42°23' W 071°01'0 0.0
2018-Apr-14 13:30N 42°23' W 071°01'0 0.0
2018-Apr-14 13:01N 42°23' W 071°01'0 0.0
2018-Apr-14 12:30N 42°23' W 071°01'0 0.0
2018-Apr-14 11:57N 42°23' W 071°01'0 0.0
2018-Apr-14 11:31N 42°23' W 071°01'0 0.0
2018-Apr-14 10:57N 42°23' W 071°01'0 0.0
2018-Apr-14 10:30N 42°23' W 071°01'0 0.0
2018-Apr-14 10:00N 42°23' W 071°01'0 0.0
2018-Apr-14 09:30N 42°23' W 071°01'0 0.0
2018-Apr-14 08:57N 42°23' W 071°01'0 0.0
2018-Apr-14 08:31N 42°23' W 071°01'0 0.0
2018-Apr-14 07:58N 42°23' W 071°01'0 0.0
2018-Apr-14 07:30N 42°23' W 071°01'0 0.0
2018-Apr-14 06:58N 42°23' W 071°01'0 0.0
2018-Apr-14 06:30N 42°23' W 071°01'0 0.0
2018-Apr-14 06:00N 42°23' W 071°01'0 0.0
2018-Apr-14 05:30N 42°23' W 071°01'0 0.0
2018-Apr-14 05:00N 42°23' W 071°01'0 0.0
2018-Apr-14 04:30N 42°23' W 071°01'0 0.0
2018-Apr-14 04:00N 42°23' W 071°01'0 0.0
2018-Apr-14 03:30N 42°23' W 071°01'0 0.0
2018-Apr-14 03:00N 42°23' W 071°01'0 0.0
2018-Apr-14 02:30N 42°23' W 071°01'0 0.0
2018-Apr-14 02:00N 42°23' W 071°01'0 0.0
2018-Apr-14 01:31N 42°23' W 071°01'1 1.1
2018-Apr-14 01:01N 42°24' W 071°01'0 0.9
2018-Apr-14 00:30N 42°23' W 071°01'1 2.4
2018-Apr-14 00:00N 42°23' W 071°03'2 3.4
2018-Apr-13 23:30N 42°21' W 071°02'0 0.0
2018-Apr-13 23:00N 42°21' W 071°02'0 0.1
2018-Apr-13 22:29N 42°21' W 071°02'0 0.2
2018-Apr-13 21:59N 42°21' W 071°01'0 0.1
2018-Apr-13 21:30N 42°21' W 071°01'0 0.1
2018-Apr-13 20:59N 42°21' W 071°01'0 0.0
2018-Apr-13 20:29N 42°21' W 071°01'0 0.0
2018-Apr-13 20:00N 42°21' W 071°01'0 0.0
2018-Apr-13 19:29N 42°21' W 071°01'0 0.0
2018-Apr-13 18:59N 42°21' W 071°01'0 0.0
2018-Apr-13 18:30N 42°21' W 071°01'0 0.0
2018-Apr-13 17:59N 42°21' W 071°01'0 0.0
2018-Apr-13 17:30N 42°21' W 071°01'0 0.0
2018-Apr-13 16:59N 42°21' W 071°01'0 0.0
2018-Apr-13 16:29N 42°21' W 071°01'0 0.0
2018-Apr-13 16:00N 42°21' W 071°01'0 0.0
2018-Apr-13 15:30N 42°21' W 071°01'0 0.0
2018-Apr-13 15:00N 42°21' W 071°01'0 0.1
2018-Apr-13 14:29N 42°21' W 071°01'0 0.0
2018-Apr-13 13:59N 42°21' W 071°01'0 0.0
2018-Apr-13 13:29N 42°21' W 071°01'0 0.0
2018-Apr-13 12:59N 42°21' W 071°01'0 0.0
2018-Apr-13 12:29N 42°21' W 071°01'0 0.0
2018-Apr-13 12:00N 42°21' W 071°01'0 0.1
2018-Apr-13 11:29N 42°21' W 071°01'0 0.0
2018-Apr-13 10:59N 42°21' W 071°01'0 0.0
2018-Apr-13 10:29N 42°21' W 071°01'0 0.1
2018-Apr-13 10:00N 42°21' W 071°01'0 0.1
2018-Apr-13 09:30N 42°21' W 071°02'0 0.2
2018-Apr-13 09:01N 42°21' W 071°02'0 0.1
2018-Apr-13 08:30N 42°21' W 071°02'0 0.2
2018-Apr-13 08:00N 42°21' W 071°02'1 1.8
2018-Apr-13 07:30N 42°21' W 071°01'3 5.7
2018-Apr-13 07:00N 42°20' W 070°57'3 5.5
2018-Apr-13 06:30N 42°22' W 070°54'3 6.4
2018-Apr-13 06:00N 42°23' W 070°50'3 6.4
2018-Apr-13 05:30N 42°22' W 070°46'3 6.7
2018-Apr-13 05:00N 42°20' W 070°43'3 6.8
2018-Apr-13 04:30N 42°17' W 070°40'3 6.9
2018-Apr-13 04:00N 42°15' W 070°37'182 6.2
2018-Apr-11 22:48N 40°29' W 073°54'2 7.0
2018-Apr-11 22:29N 40°30' W 073°57'3 6.7
2018-Apr-11 22:00N 40°32' W 074°01'3 6.2
2018-Apr-11 21:30N 40°34' W 074°02'3 6.0
2018-Apr-11 21:00N 40°37' W 074°03'2 4.9
2018-Apr-11 20:30N 40°39' W 074°06'2 4.3
2018-Apr-11 20:00N 40°39' W 074°09'2 3.9
2018-Apr-11 19:30N 40°39' W 074°11'1 2.9
2018-Apr-11 19:00N 40°38' W 074°12'0 0.2
2018-Apr-11 18:29N 40°38' W 074°12'0 0.0
2018-Apr-11 18:00N 40°38' W 074°12'0 0.0
2018-Apr-11 17:30N 40°38' W 074°12'0 0.0
2018-Apr-11 17:00N 40°38' W 074°12'0 0.0
2018-Apr-11 16:30N 40°38' W 074°12'0 0.0
2018-Apr-11 16:00N 40°38' W 074°12'0 0.0
2018-Apr-11 15:30N 40°38' W 074°12'0 0.0
2018-Apr-11 15:00N 40°38' W 074°12'0 0.0
2018-Apr-11 14:30N 40°38' W 074°12'0 0.0
2018-Apr-11 14:00N 40°38' W 074°12'0 0.0
2018-Apr-11 13:30N 40°38' W 074°12'0 0.0
2018-Apr-11 13:00N 40°38' W 074°12'0 0.0
2018-Apr-11 12:15N 40°38' W 074°12'0 0.0
2018-Apr-11 11:58N 40°38' W 074°12'0 0.0
2018-Apr-11 11:28N 40°38' W 074°12'0 0.0
2018-Apr-11 10:58N 40°38' W 074°12'0 0.0
2018-Apr-11 10:28N 40°38' W 074°12'0 0.0
2018-Apr-11 09:58N 40°38' W 074°12'0 0.0
2018-Apr-11 09:28N 40°38' W 074°12'0 0.0
2018-Apr-11 08:58N 40°38' W 074°12'0 0.0
2018-Apr-11 08:28N 40°38' W 074°12'0 0.0
2018-Apr-11 07:55N 40°38' W 074°12'0 0.0
2018-Apr-11 07:28N 40°38' W 074°12'0 0.0
2018-Apr-11 06:58N 40°38' W 074°12'0 0.0
2018-Apr-11 06:28N 40°38' W 074°12'0 0.0
2018-Apr-11 05:58N 40°38' W 074°12'0 0.0
2018-Apr-11 05:19N 40°38' W 074°12'0 0.0
2018-Apr-11 04:58N 40°38' W 074°12'0 0.0
2018-Apr-11 04:28N 40°38' W 074°12'0 0.0
2018-Apr-11 03:58N 40°38' W 074°12'0 0.0
2018-Apr-11 03:28N 40°38' W 074°12'0 0.0
2018-Apr-11 02:55N 40°38' W 074°12'0 0.0
2018-Apr-11 02:28N 40°38' W 074°12'0 0.0
2018-Apr-11 01:55N 40°38' W 074°12'0 0.0
2018-Apr-11 01:28N 40°38' W 074°12'0 0.0
2018-Apr-11 00:52N 40°38' W 074°12'0 0.0
2018-Apr-11 00:28N 40°38' W 074°12'0 0.0
2018-Apr-10 23:55N 40°38' W 074°12'0 0.0
2018-Apr-10 23:28N 40°38' W 074°12'0 0.0
2018-Apr-10 22:58N 40°38' W 074°12'0 0.0
2018-Apr-10 22:19N 40°38' W 074°12'0 0.0
2018-Apr-10 21:58N 40°38' W 074°12'0 0.0
2018-Apr-10 21:28N 40°38' W 074°12'0 0.0
2018-Apr-10 20:58N 40°38' W 074°12'0 0.0
2018-Apr-10 20:25N 40°38' W 074°12'0 0.0
2018-Apr-10 19:55N 40°38' W 074°12'0 0.0
2018-Apr-10 19:28N 40°38' W 074°12'0 0.0
2018-Apr-10 18:58N 40°38' W 074°12'0 0.0
2018-Apr-10 18:25N 40°38' W 074°12'0 0.0
2018-Apr-10 17:58N 40°38' W 074°12'0 0.0
2018-Apr-10 17:19N 40°38' W 074°12'0 0.0
2018-Apr-10 16:58N 40°38' W 074°12'0 0.0
2018-Apr-10 15:55N 40°38' W 074°12'  
Track history (hours):
 
Tides and Currents Weather Stations Pressure Air Temp Water Temp Dewpoint Dewpoint Depression Visibility Wind Speed Wind Dir Waves Ship Positions

Mckinley Sea

Owner: Kirby Offshore Marine, LLC, Staten Island, NY. More information available from US FCC via Universal Licensing System and Coast Guard Vessel Documentation Center.

Last reported at 2018-Apr-20 15:08 UTC. Time now 2018-Apr-20 16:45 UTC.
Position N 42°15' W 070°58'.

Length 152 m; draft 5.5 m.

Type: . MMSI: 367360980.

Date/timePositionNaut miles runAvg speedWind from/ knotsBaromVisibWave heightAir tempDewpointWater temp
2018-Apr-20 15:08N 42°15' W 070°58'0 1.5
2018-Apr-20 14:56N 42°15' W 070°58'1 0.8
2018-Apr-20 14:15N 42°14' W 070°58'0 0.0
2018-Apr-20 13:53N 42°14' W 070°58'0 0.0
2018-Apr-20 13:29N 42°14' W 070°58'0 0.0
2018-Apr-20 12:47N 42°14' W 070°58'0 0.0
2018-Apr-20 12:12N 42°14' W 070°58'0 0.0
2018-Apr-20 11:44N 42°14' W 070°58'0 0.0
2018-Apr-20 11:22N 42°14' W 070°58'0 0.0
2018-Apr-20 10:23N 42°14' W 070°58'0 0.0
2018-Apr-20 07:33N 42°14' W 070°58'0 0.0
2018-Apr-20 07:21N 42°14' W 070°58'0 0.0
2018-Apr-20 06:58N 42°14' W 070°58'0 0.0
2018-Apr-20 06:29N 42°14' W 070°58'0 0.0
2018-Apr-20 05:56N 42°14' W 070°58'0 0.0
2018-Apr-20 05:29N 42°14' W 070°58'0 0.0
2018-Apr-20 04:59N 42°14' W 070°58'0 0.0
2018-Apr-20 04:29N 42°14' W 070°58'0 0.0
2018-Apr-20 03:59N 42°14' W 070°58'0 0.0
2018-Apr-20 03:29N 42°14' W 070°58'0 0.0
2018-Apr-20 02:58N 42°14' W 070°58'0 0.0
2018-Apr-19 22:32N 42°14' W 070°58'0 0.0
2018-Apr-19 22:25N 42°14' W 070°58'0 0.0
2018-Apr-19 17:20N 42°14' W 070°58'0 0.0
2018-Apr-19 16:58N 42°14' W 070°58'0 0.0
2018-Apr-19 15:12N 42°14' W 070°58'0 0.0
2018-Apr-19 15:00N 42°14' W 070°58'0 0.1
2018-Apr-19 14:31N 42°14' W 070°58'1 2.0
2018-Apr-19 14:00N 42°15' W 070°57'2 3.4
2018-Apr-19 13:31N 42°16' W 070°56'2 4.5
2018-Apr-19 13:00N 42°19' W 070°55'3 5.0
2018-Apr-19 12:30N 42°19' W 070°52'2 4.1
2018-Apr-19 12:01N 42°20' W 070°50'2 3.0
2018-Apr-19 11:28N 42°22' W 070°49'2 3.5
2018-Apr-19 11:00N 42°23' W 070°51'2 3.2
2018-Apr-19 10:30N 42°23' W 070°53'2 4.0
2018-Apr-19 10:00N 42°22' W 070°55'3 5.3
2018-Apr-19 09:30N 42°20' W 070°58'0 0.3
2018-Apr-19 08:56N 42°20' W 070°58'0 0.1
2018-Apr-19 08:26N 42°20' W 070°58'0 0.0
2018-Apr-19 07:57N 42°20' W 070°58'0 0.0
2018-Apr-19 06:27N 42°20' W 070°58'0 0.0
2018-Apr-19 05:29N 42°20' W 070°58'0 0.0
2018-Apr-19 04:50N 42°20' W 070°58'0 0.0
2018-Apr-19 04:26N 42°20' W 070°58'0 0.1
2018-Apr-19 03:56N 42°20' W 070°59'0 0.1
2018-Apr-19 03:30N 42°20' W 070°59'0 0.0
2018-Apr-19 02:57N 42°20' W 070°59'0 0.1
2018-Apr-19 02:30N 42°20' W 070°59'0 0.0
2018-Apr-19 01:54N 42°20' W 070°59'0 0.2
2018-Apr-19 01:27N 42°20' W 070°59'0 0.2
2018-Apr-19 00:54N 42°20' W 070°58'0 0.0
2018-Apr-19 00:29N 42°20' W 070°58'0 0.0
2018-Apr-18 23:57N 42°20' W 070°58'0 0.0
2018-Apr-18 23:24N 42°20' W 070°58'0 0.0
2018-Apr-18 23:00N 42°20' W 070°58'0 0.0
2018-Apr-18 22:15N 42°20' W 070°58'0 0.0
2018-Apr-18 21:59N 42°20' W 070°58'0 0.0
2018-Apr-18 21:20N 42°20' W 070°58'0 0.0
2018-Apr-18 20:56N 42°20' W 070°58'0 0.0
2018-Apr-18 20:30N 42°20' W 070°58'0 0.0
2018-Apr-18 20:00N 42°20' W 070°58'0 0.1
2018-Apr-18 19:30N 42°20' W 070°58'2 3.1
2018-Apr-18 18:58N 42°21' W 070°56'2 5.3
2018-Apr-18 18:30N 42°23' W 070°54'3 5.6
2018-Apr-18 18:00N 42°23' W 070°50'3 5.9
2018-Apr-18 17:30N 42°22' W 070°46'2 4.7
2018-Apr-18 17:00N 42°20' W 070°44'3 5.4
2018-Apr-18 16:30N 42°18' W 070°41'3 5.7
2018-Apr-18 16:00N 42°16' W 070°39'92 5.0
2018-Apr-17 21:28N 41°14' W 072°10'9 9.8
2018-Apr-17 20:35N 41°11' W 072°21'1 9.5
2018-Apr-17 20:30N 41°11' W 072°22'5 9.3
2018-Apr-17 19:55N 41°09' W 072°29'4 8.7
2018-Apr-17 19:30N 41°08' W 072°33'4 8.4
2018-Apr-17 19:00N 41°07' W 072°39'49 6.7
2018-Apr-17 11:38N 40°54' W 073°42'1 6.9
2018-Apr-17 11:29N 40°53' W 073°43'4 7.5
2018-Apr-17 11:00N 40°50' W 073°46'3 5.9
2018-Apr-17 10:29N 40°48' W 073°48'3 7.1
2018-Apr-17 10:00N 40°48' W 073°53'3 5.4
2018-Apr-17 09:30N 40°47' W 073°56'3 5.2
2018-Apr-17 09:00N 40°45' W 073°58'2 4.2
2018-Apr-17 08:30N 40°43' W 073°59'2 3.2
2018-Apr-17 08:00N 40°42' W 074°00'2 4.1
2018-Apr-17 07:30N 40°40' W 074°03'2 3.4
2018-Apr-17 07:00N 40°39' W 074°04'4 7.4
2018-Apr-17 06:30N 40°39' W 074°09'2 4.6
2018-Apr-17 06:00N 40°38' W 074°12'0 0.8
2018-Apr-17 05:30N 40°38' W 074°12'0 0.0
2018-Apr-17 05:00N 40°38' W 074°12'0 0.0
2018-Apr-17 04:30N 40°38' W 074°12'0 0.3
2018-Apr-17 04:00N 40°38' W 074°12'0 0.1
2018-Apr-17 03:29N 40°38' W 074°12'0 0.0
2018-Apr-17 02:59N 40°38' W 074°12'0 0.0
2018-Apr-17 02:30N 40°38' W 074°12'1 2.4
2018-Apr-17 02:00N 40°39' W 074°11'1 2.2
2018-Apr-17 01:29N 40°39' W 074°10'0 0.0
2018-Apr-17 01:00N 40°39' W 074°10'0 0.0
2018-Apr-17 00:30N 40°39' W 074°10'0 0.0
2018-Apr-17 00:00N 40°39' W 074°10'0 0.0
2018-Apr-16 23:30N 40°39' W 074°10'0 0.0
2018-Apr-16 23:00N 40°39' W 074°10'0 0.0
2018-Apr-16 22:24N 40°39' W 074°10'0 0.0
2018-Apr-16 22:00N 40°39' W 074°10'0 0.0
2018-Apr-16 21:27N 40°39' W 074°10'0 0.0
2018-Apr-16 21:00N 40°39' W 074°10'0 0.0
2018-Apr-16 20:30N 40°39' W 074°10'0 0.0
2018-Apr-16 20:00N 40°39' W 074°10'0 0.0
2018-Apr-16 19:24N 40°39' W 074°10'0 0.0
2018-Apr-16 18:54N 40°39' W 074°10'0 0.0
2018-Apr-16 18:30N 40°39' W 074°10'0 0.0
2018-Apr-16 17:54N 40°39' W 074°10'0 0.0
2018-Apr-16 17:27N 40°39' W 074°10'0 0.0
2018-Apr-16 16:57N 40°39' W 074°10'0 0.0
2018-Apr-16 15:54N 40°39' W 074°10'0 0.0
2018-Apr-16 15:21N 40°39' W 074°10'0 0.0
2018-Apr-16 14:57N 40°39' W 074°10'0 0.0
2018-Apr-16 14:21N 40°39' W 074°10'0 0.0
2018-Apr-16 13:54N 40°39' W 074°10'0 0.0
2018-Apr-16 13:03N 40°39' W 074°10'0 0.0
2018-Apr-16 12:57N 40°39' W 074°10'0 0.0
2018-Apr-16 12:21N 40°39' W 074°10'0 0.0
2018-Apr-16 11:57N 40°39' W 074°10'0 0.0
2018-Apr-16 11:27N 40°39' W 074°10'0 0.0
2018-Apr-16 11:00N 40°39' W 074°10'0 0.0
2018-Apr-16 10:30N 40°39' W 074°10'0 0.0
2018-Apr-16 09:57N 40°39' W 074°10'0 0.0
2018-Apr-16 09:30N 40°39' W 074°10'0 0.0
2018-Apr-16 09:00N 40°39' W 074°10'0 0.0
2018-Apr-16 08:27N 40°39' W 074°10'0 0.0
2018-Apr-16 08:00N 40°39' W 074°10'0 0.0
2018-Apr-16 07:30N 40°39' W 074°10'0 0.0
2018-Apr-16 07:00N 40°39' W 074°10'0 0.0
2018-Apr-16 06:27N 40°39' W 074°10'0 0.0
2018-Apr-16 05:57N 40°39' W 074°10'0 0.0
2018-Apr-16 05:27N 40°39' W 074°10'0 0.0
2018-Apr-16 05:00N 40°39' W 074°10'0 0.0
2018-Apr-16 04:27N 40°39' W 074°10'0 0.0
2018-Apr-16 03:57N 40°39' W 074°10'0 0.0
2018-Apr-16 03:27N 40°39' W 074°10'0 0.0
2018-Apr-16 02:57N 40°39' W 074°10'0 0.0
2018-Apr-16 02:27N 40°39' W 074°10'0 0.0
2018-Apr-16 01:57N 40°39' W 074°10'0 0.0
2018-Apr-16 01:27N 40°39' W 074°10'0 0.0
2018-Apr-16 00:59N 40°39' W 074°10'2 4.0
2018-Apr-16 00:30N 40°38' W 074°12'0 0.0
2018-Apr-15 23:59N 40°38' W 074°12'0 0.1
2018-Apr-15 23:30N 40°38' W 074°12'2 4.3
2018-Apr-15 23:00N 40°39' W 074°10'4 8.9
2018-Apr-15 22:30N 40°39' W 074°04'4 8.1
2018-Apr-15 22:00N 40°42' W 074°00'3 5.9
2018-Apr-15 21:30N 40°44' W 073°58'3 6.6
2018-Apr-15 21:00N 40°47' W 073°55'4 7.9
2018-Apr-15 20:29N 40°48' W 073°50'57 8.8
2018-Apr-15 14:01N 41°07' W 072°39'010.0
2018-Apr-15 14:00N 41°07' W 072°39'510.4
2018-Apr-15 13:30N 41°08' W 072°32'611.2
2018-Apr-15 13:00N 41°10' W 072°25'611.7
2018-Apr-15 12:29N 41°12' W 072°17'611.7
2018-Apr-15 11:58N 41°13' W 072°10'92 6.7
2018-Apr-14 22:06N 42°22' W 070°46'1 8.9
2018-Apr-14 22:00N 42°22' W 070°47'4 7.9
2018-Apr-14 21:30N 42°23' W 070°53'4 8.3
2018-Apr-14 21:00N 42°20' W 070°57'4 7.9
2018-Apr-14 20:30N 42°21' W 071°02'2 3.7
2018-Apr-14 20:00N 42°23' W 071°02'0 0.2
2018-Apr-14 19:30N 42°23' W 071°01'0 0.0
2018-Apr-14 18:57N 42°23' W 071°01'0 0.0
2018-Apr-14 18:31N 42°23' W 071°01'0 0.0
2018-Apr-14 18:00N 42°23' W 071°01'0 0.0
2018-Apr-14 17:30N 42°23' W 071°01'0 0.0
2018-Apr-14 16:55N 42°23' W 071°01'0 0.0
2018-Apr-14 16:31N 42°23' W 071°01'0 0.0
2018-Apr-14 15:57N 42°23' W 071°01'0 0.0
2018-Apr-14 15:27N 42°23' W 071°01'0 0.0
2018-Apr-14 15:00N 42°23' W 071°01'0 0.0
2018-Apr-14 14:30N 42°23' W 071°01'0 0.0
2018-Apr-14 13:57N 42°23' W 071°01'0 0.0
2018-Apr-14 13:30N 42°23' W 071°01'0 0.0
2018-Apr-14 13:01N 42°23' W 071°01'0 0.0
2018-Apr-14 12:30N 42°23' W 071°01'0 0.0
2018-Apr-14 11:57N 42°23' W 071°01'0 0.0
2018-Apr-14 11:31N 42°23' W 071°01'0 0.0
2018-Apr-14 10:57N 42°23' W 071°01'0 0.0
2018-Apr-14 10:30N 42°23' W 071°01'0 0.0
2018-Apr-14 10:00N 42°23' W 071°01'0 0.0
2018-Apr-14 09:30N 42°23' W 071°01'0 0.0
2018-Apr-14 08:57N 42°23' W 071°01'0 0.0
2018-Apr-14 08:31N 42°23' W 071°01'0 0.0
2018-Apr-14 07:58N 42°23' W 071°01'0 0.0
2018-Apr-14 07:30N 42°23' W 071°01'0 0.0
2018-Apr-14 06:58N 42°23' W 071°01'0 0.0
2018-Apr-14 06:30N 42°23' W 071°01'0 0.0
2018-Apr-14 06:00N 42°23' W 071°01'0 0.0
2018-Apr-14 05:30N 42°23' W 071°01'0 0.0
2018-Apr-14 05:00N 42°23' W 071°01'0 0.0
2018-Apr-14 04:30N 42°23' W 071°01'0 0.0
2018-Apr-14 04:00N 42°23' W 071°01'0 0.0
2018-Apr-14 03:30N 42°23' W 071°01'0 0.0
2018-Apr-14 03:00N 42°23' W 071°01'0 0.0
2018-Apr-14 02:30N 42°23' W 071°01'0 0.0
2018-Apr-14 02:00N 42°23' W 071°01'0 0.0
2018-Apr-14 01:31N 42°23' W 071°01'1 1.1
2018-Apr-14 01:01N 42°24' W 071°01'0 0.9
2018-Apr-14 00:30N 42°23' W 071°01'1 2.4
2018-Apr-14 00:00N 42°23' W 071°03'2 3.4
2018-Apr-13 23:30N 42°21' W 071°02'0 0.0
2018-Apr-13 23:00N 42°21' W 071°02'0 0.1
2018-Apr-13 22:29N 42°21' W 071°02'0 0.2
2018-Apr-13 21:59N 42°21' W 071°01'0 0.1
2018-Apr-13 21:30N 42°21' W 071°01'0 0.1
2018-Apr-13 20:59N 42°21' W 071°01'0 0.0
2018-Apr-13 20:29N 42°21' W 071°01'0 0.0
2018-Apr-13 20:00N 42°21' W 071°01'0 0.0
2018-Apr-13 19:29N 42°21' W 071°01'0 0.0
2018-Apr-13 18:59N 42°21' W 071°01'0 0.0
2018-Apr-13 18:30N 42°21' W 071°01'0 0.0
2018-Apr-13 17:59N 42°21' W 071°01'0 0.0
2018-Apr-13 17:30N 42°21' W 071°01'0 0.0
2018-Apr-13 16:59N 42°21' W 071°01'0 0.0
2018-Apr-13 16:29N 42°21' W 071°01'0 0.0
2018-Apr-13 16:00N 42°21' W 071°01'0 0.0
2018-Apr-13 15:30N 42°21' W 071°01'0 0.0
2018-Apr-13 15:00N 42°21' W 071°01'0 0.1
2018-Apr-13 14:29N 42°21' W 071°01'0 0.0
2018-Apr-13 13:59N 42°21' W 071°01'0 0.0
2018-Apr-13 13:29N 42°21' W 071°01'0 0.0
2018-Apr-13 12:59N 42°21' W 071°01'0 0.0
2018-Apr-13 12:29N 42°21' W 071°01'0 0.0
2018-Apr-13 12:00N 42°21' W 071°01'0 0.1
2018-Apr-13 11:29N 42°21' W 071°01'0 0.0
2018-Apr-13 10:59N 42°21' W 071°01'0 0.0
2018-Apr-13 10:29N 42°21' W 071°01'0 0.1
2018-Apr-13 10:00N 42°21' W 071°01'0 0.1
2018-Apr-13 09:30N 42°21' W 071°02'0 0.2
2018-Apr-13 09:01N 42°21' W 071°02'0 0.1
2018-Apr-13 08:30N 42°21' W 071°02'0 0.2
2018-Apr-13 08:00N 42°21' W 071°02'1 1.8
2018-Apr-13 07:30N 42°21' W 071°01'3 5.7
2018-Apr-13 07:00N 42°20' W 070°57'3 5.5
2018-Apr-13 06:30N 42°22' W 070°54'3 6.4
2018-Apr-13 06:00N 42°23' W 070°50'3 6.4
2018-Apr-13 05:30N 42°22' W 070°46'3 6.7
2018-Apr-13 05:00N 42°20' W 070°43'3 6.8
2018-Apr-13 04:30N 42°17' W 070°40'3 6.9
2018-Apr-13 04:00N 42°15' W 070°37'182 6.2
2018-Apr-11 22:48N 40°29' W 073°54'2 7.0
2018-Apr-11 22:29N 40°30' W 073°57'3 6.7
2018-Apr-11 22:00N 40°32' W 074°01'3 6.2
2018-Apr-11 21:30N 40°34' W 074°02'3 6.0
2018-Apr-11 21:00N 40°37' W 074°03'2 4.9
2018-Apr-11 20:30N 40°39' W 074°06'2 4.3
2018-Apr-11 20:00N 40°39' W 074°09'2 3.9
2018-Apr-11 19:30N 40°39' W 074°11'1 2.9
2018-Apr-11 19:00N 40°38' W 074°12'0 0.2
2018-Apr-11 18:29N 40°38' W 074°12'0 0.0
2018-Apr-11 18:00N 40°38' W 074°12'0 0.0
2018-Apr-11 17:30N 40°38' W 074°12'0 0.0
2018-Apr-11 17:00N 40°38' W 074°12'0 0.0
2018-Apr-11 16:30N 40°38' W 074°12'0 0.0
2018-Apr-11 16:00N 40°38' W 074°12'0 0.0
2018-Apr-11 15:30N 40°38' W 074°12'0 0.0
2018-Apr-11 15:00N 40°38' W 074°12'0 0.0
2018-Apr-11 14:30N 40°38' W 074°12'0 0.0
2018-Apr-11 14:00N 40°38' W 074°12'0 0.0
2018-Apr-11 13:30N 40°38' W 074°12'0 0.0
2018-Apr-11 13:00N 40°38' W 074°12'0 0.0
2018-Apr-11 12:15N 40°38' W 074°12'0 0.0
2018-Apr-11 11:58N 40°38' W 074°12'0 0.0
2018-Apr-11 11:28N 40°38' W 074°12'0 0.0
2018-Apr-11 10:58N 40°38' W 074°12'0 0.0
2018-Apr-11 10:28N 40°38' W 074°12'0 0.0
2018-Apr-11 09:58N 40°38' W 074°12'0 0.0
2018-Apr-11 09:28N 40°38' W 074°12'0 0.0
2018-Apr-11 08:58N 40°38' W 074°12'0 0.0
2018-Apr-11 08:28N 40°38' W 074°12'0 0.0
2018-Apr-11 07:55N 40°38' W 074°12'0 0.0
2018-Apr-11 07:28N 40°38' W 074°12'0 0.0
2018-Apr-11 06:58N 40°38' W 074°12'0 0.0
2018-Apr-11 06:28N 40°38' W 074°12'0 0.0
2018-Apr-11 05:58N 40°38' W 074°12'0 0.0
2018-Apr-11 05:19N 40°38' W 074°12'0 0.0
2018-Apr-11 04:58N 40°38' W 074°12'0 0.0
2018-Apr-11 04:28N 40°38' W 074°12'0 0.0
2018-Apr-11 03:58N 40°38' W 074°12'0 0.0
2018-Apr-11 03:28N 40°38' W 074°12'0 0.0
2018-Apr-11 02:55N 40°38' W 074°12'0 0.0
2018-Apr-11 02:28N 40°38' W 074°12'0 0.0
2018-Apr-11 01:55N 40°38' W 074°12'0 0.0
2018-Apr-11 01:28N 40°38' W 074°12'0 0.0
2018-Apr-11 00:52N 40°38' W 074°12'0 0.0
2018-Apr-11 00:28N 40°38' W 074°12'0 0.0
2018-Apr-10 23:55N 40°38' W 074°12'0 0.0
2018-Apr-10 23:28N 40°38' W 074°12'0 0.0
2018-Apr-10 22:58N 40°38' W 074°12'0 0.0
2018-Apr-10 22:19N 40°38' W 074°12'0 0.0
2018-Apr-10 21:58N 40°38' W 074°12'0 0.0
2018-Apr-10 21:28N 40°38' W 074°12'0 0.0
2018-Apr-10 20:58N 40°38' W 074°12'0 0.0
2018-Apr-10 20:25N 40°38' W 074°12'0 0.0
2018-Apr-10 19:55N 40°38' W 074°12'0 0.0
2018-Apr-10 19:28N 40°38' W 074°12'0 0.0
2018-Apr-10 18:58N 40°38' W 074°12'0 0.0
2018-Apr-10 18:25N 40°38' W 074°12'0 0.0
2018-Apr-10 17:58N 40°38' W 074°12'0 0.0
2018-Apr-10 17:19N 40°38' W 074°12'0 0.0
2018-Apr-10 16:58N 40°38' W 074°12'0 0.0
2018-Apr-10 15:55N 40°38' W 074°12'  

Dump ship's entire track history